Time;durP1;ratioP1;P1;durP2;ratioP2;P2;SDS_P1;SDS_P2;PMS_P1;PMS_P2;Temp;Humidity;BMP_temperature;BMP_pressure;BME280_temperature;BME280_humidity;BME280_pressure;Samples;Min_cycle;Max_cycle;Signal;HPM_P1;HPM_P2
2023/04/26 00:00:24;;;;;;;15.57;7.85;;;4.90;78.00;;;;;;4999238;28;20045;-77
2023/04/26 00:02:50;;;;;;;12.50;8.32;;;4.90;78.00;;;;;;4998721;28;20378;-75
2023/04/26 00:05:17;;;;;;;16.50;8.00;;;4.90;78.20;;;;;;5000531;28;20033;-77
2023/04/26 00:07:43;;;;;;;16.08;8.18;;;4.80;78.20;;;;;;5003194;28;20038;-75
2023/04/26 00:10:09;;;;;;;16.23;8.68;;;4.80;78.30;;;;;;5006958;28;20566;-75
2023/04/26 00:12:35;;;;;;;13.82;8.00;;;4.70;78.40;;;;;;5000813;28;20045;-75
2023/04/26 00:15:04;;;;;;;14.88;8.98;;;4.80;78.30;;;;;;4999200;28;20619;-77
2023/04/26 00:17:30;;;;;;;17.38;8.00;;;4.70;78.40;;;;;;4997351;28;20088;-76
2023/04/26 00:19:56;;;;;;;14.93;8.63;;;4.60;78.70;;;;;;5004140;28;20042;-77
2023/04/26 00:22:23;;;;;;;12.38;7.75;;;4.60;78.90;;;;;;5001690;28;20054;-76
2023/04/26 00:24:49;;;;;;;16.27;8.23;;;4.60;78.80;;;;;;5003519;28;20022;-75
2023/04/26 00:27:15;;;;;;;15.73;8.23;;;4.60;79.00;;;;;;5004920;28;21801;-76
2023/04/26 00:29:41;;;;;;;15.32;7.53;;;4.60;79.20;;;;;;5006181;28;20666;-76
2023/04/26 00:32:06;;;;;;;15.05;7.75;;;4.60;79.30;;;;;;4998980;28;20092;-76
2023/04/26 00:34:36;;;;;;;13.05;8.32;;;4.50;79.50;;;;;;5007371;28;20043;-75
2023/04/26 00:37:03;;;;;;;15.82;7.40;;;4.50;79.60;;;;;;5002221;28;20584;-76
2023/04/26 00:39:29;;;;;;;13.02;7.72;;;4.50;79.60;;;;;;4995387;28;20165;-76
2023/04/26 00:41:55;;;;;;;14.10;7.72;;;4.50;79.40;;;;;;4999988;28;20141;-76
2023/04/26 00:44:20;;;;;;;13.60;8.93;;;4.40;79.30;;;;;;5006143;28;20022;-76
2023/04/26 00:46:47;;;;;;;16.27;8.73;;;4.40;79.40;;;;;;4995482;28;20393;-75
2023/04/26 00:49:16;;;;;;;13.57;8.85;;;4.40;79.50;;;;;;4993929;28;20056;-76
2023/04/26 00:51:45;;;;;;;18.80;9.10;;;4.40;79.50;;;;;;5001420;28;20038;-76
2023/04/26 00:54:12;;;;;;;16.67;9.45;;;4.40;79.70;;;;;;5019549;28;20387;-76
2023/04/26 00:56:39;;;;;;;13.70;8.95;;;4.30;79.70;;;;;;5002073;28;20183;-76
2023/04/26 00:59:05;;;;;;;12.43;8.73;;;4.30;79.70;;;;;;4997828;28;20029;-76
2023/04/26 01:01:31;;;;;;;18.00;10.02;;;4.20;79.70;;;;;;5002032;28;20482;-76
2023/04/26 01:03:57;;;;;;;18.38;10.25;;;4.20;79.80;;;;;;5003254;28;20060;-75
2023/04/26 01:06:23;;;;;;;18.33;10.82;;;4.10;80.00;;;;;;4997844;28;20100;-74
2023/04/26 01:08:52;;;;;;;16.17;10.10;;;4.10;80.10;;;;;;4998974;28;20449;-76
2023/04/26 01:11:21;;;;;;;16.40;10.38;;;4.20;80.20;;;;;;4999502;28;20464;-76
2023/04/26 01:13:47;;;;;;;17.42;10.10;;;4.10;80.20;;;;;;5003568;28;20096;-75
2023/04/26 01:16:15;;;;;;;16.30;10.32;;;4.10;80.20;;;;;;5001349;28;20102;-77
2023/04/26 01:18:41;;;;;;;16.73;11.05;;;4.10;80.20;;;;;;4989944;28;20494;-77
2023/04/26 01:21:07;;;;;;;19.10;11.00;;;4.10;80.20;;;;;;4995047;28;20669;-76
2023/04/26 01:23:33;;;;;;;18.02;10.25;;;4.10;80.20;;;;;;4999740;28;20065;-76
2023/04/26 01:25:58;;;;;;;16.73;10.25;;;4.10;80.10;;;;;;4997588;28;20480;-77
2023/04/26 01:28:24;;;;;;;14.30;9.68;;;4.10;80.10;;;;;;5001514;28;20461;-77
2023/04/26 01:30:50;;;;;;;17.40;10.48;;;4.10;80.10;;;;;;5002812;28;20022;-75
2023/04/26 01:33:16;;;;;;;19.70;11.38;;;4.10;80.00;;;;;;5000779;28;20120;-76
2023/04/26 01:35:41;;;;;;;20.27;13.40;;;4.10;80.00;;;;;;4993393;28;20447;-76
2023/04/26 01:38:07;;;;;;;20.42;12.27;;;4.00;80.00;;;;;;5001949;28;20018;-77
2023/04/26 01:40:33;;;;;;;20.58;11.85;;;4.00;80.10;;;;;;5001947;28;20034;-76
2023/04/26 01:42:59;;;;;;;21.33;12.77;;;4.00;80.40;;;;;;4998339;28;20030;-75
2023/04/26 01:45:25;;;;;;;20.95;13.02;;;4.00;80.50;;;;;;4999365;28;20040;-76
2023/04/26 01:47:51;;;;;;;21.52;13.05;;;4.00;80.60;;;;;;4995845;28;20136;-76
2023/04/26 01:50:16;;;;;;;20.88;13.13;;;4.00;80.70;;;;;;5002801;28;20029;-76
2023/04/26 01:52:42;;;;;;;21.02;12.80;;;4.00;80.80;;;;;;4999887;28;20125;-76
2023/04/26 01:55:08;;;;;;;21.98;13.95;;;4.00;80.60;;;;;;5000840;28;20029;-76
2023/04/26 01:57:37;;;;;;;20.10;13.02;;;3.90;80.60;;;;;;5001346;28;20456;-76
2023/04/26 02:00:03;;;;;;;19.60;11.35;;;3.90;80.80;;;;;;5004726;28;20518;-75
2023/04/26 02:02:29;;;;;;;19.90;10.80;;;3.90;80.90;;;;;;4994024;28;20141;-75
2023/04/26 02:04:55;;;;;;;19.63;10.70;;;3.80;80.60;;;;;;4994145;28;20535;-75
2023/04/26 02:07:21;;;;;;;20.27;10.55;;;3.80;80.80;;;;;;5004787;28;20092;-76
2023/04/26 02:09:46;;;;;;;16.33;9.63;;;3.80;80.90;;;;;;4998603;28;20030;-75
2023/04/26 02:12:12;;;;;;;16.40;10.68;;;3.80;81.20;;;;;;5004657;28;20084;-75
2023/04/26 02:14:37;;;;;;;17.65;10.60;;;3.80;81.20;;;;;;4999314;28;20124;-74
2023/04/26 02:17:05;;;;;;;18.55;10.75;;;3.80;81.00;;;;;;4999519;28;20030;-76
2023/04/26 02:19:30;;;;;;;17.48;9.60;;;3.80;80.90;;;;;;5008160;28;20056;-77
2023/04/26 02:21:57;;;;;;;16.77;9.02;;;3.80;81.00;;;;;;4997271;28;20525;-76
2023/04/26 02:24:25;;;;;;;17.17;9.55;;;3.80;81.20;;;;;;4998971;28;20418;-77
2023/04/26 02:26:53;;;;;;;15.00;9.52;;;3.80;81.30;;;;;;4996267;28;20048;-77
2023/04/26 02:29:19;;;;;;;18.98;9.60;;;3.80;81.30;;;;;;5000771;28;20241;-74
2023/04/26 02:31:47;;;;;;;16.15;9.82;;;3.80;81.50;;;;;;4995555;28;20034;-74
2023/04/26 02:34:13;;;;;;;16.98;11.05;;;3.80;81.30;;;;;;4994324;28;20477;-75
2023/04/26 02:36:39;;;;;;;17.90;10.20;;;3.90;81.20;;;;;;5007027;28;20075;-76
2023/04/26 02:39:05;;;;;;;16.73;9.95;;;3.80;81.10;;;;;;5000196;28;20369;-76
2023/04/26 02:41:31;;;;;;;19.17;10.93;;;3.80;81.20;;;;;;5004841;28;20721;-76
2023/04/26 02:43:57;;;;;;;16.65;10.10;;;3.80;81.40;;;;;;5003795;28;20427;-76
2023/04/26 02:46:23;;;;;;;16.83;9.98;;;3.80;81.30;;;;;;5003122;28;20088;-76
2023/04/26 02:48:48;;;;;;;16.88;9.45;;;3.80;81.30;;;;;;4997214;28;20076;-76
2023/04/26 02:51:14;;;;;;;18.58;9.75;;;3.80;81.30;;;;;;4998064;28;20053;-77
2023/04/26 02:53:40;;;;;;;16.33;10.10;;;3.80;81.30;;;;;;5001277;28;20030;-75
2023/04/26 02:56:06;;;;;;;17.88;10.77;;;3.80;81.40;;;;;;4996090;28;20528;-75
2023/04/26 02:58:31;;;;;;;16.80;9.68;;;3.70;81.60;;;;;;4999522;28;20356;-76
2023/04/26 03:00:58;;;;;;;15.18;10.02;;;3.80;81.60;;;;;;4994923;28;20017;-76
2023/04/26 03:03:24;;;;;;;17.10;10.02;;;3.80;81.60;;;;;;4992992;28;20800;-76
2023/04/26 03:05:50;;;;;;;16.80;10.00;;;3.70;81.70;;;;;;4994059;28;20541;-76
2023/04/26 03:08:17;;;;;;;15.70;10.07;;;3.80;81.70;;;;;;4997587;28;20084;-77
2023/04/26 03:10:45;;;;;;;18.58;10.80;;;3.70;81.60;;;;;;5002731;28;20026;-76
2023/04/26 03:13:11;;;;;;;16.33;10.23;;;3.60;81.80;;;;;;4992771;28;20347;-75
2023/04/26 03:15:37;;;;;;;19.15;10.00;;;3.60;81.90;;;;;;4997046;28;20041;-76
2023/04/26 03:18:03;;;;;;;17.08;10.27;;;3.60;82.00;;;;;;4997988;28;20062;-75
2023/04/26 03:20:29;;;;;;;16.70;10.48;;;3.70;82.20;;;;;;5002191;28;20029;-76
2023/04/26 03:22:54;;;;;;;19.92;10.77;;;3.60;82.10;;;;;;5001180;28;20032;-76
2023/04/26 03:25:20;;;;;;;17.30;10.77;;;3.60;82.20;;;;;;5007854;28;20022;-76
2023/04/26 03:27:46;;;;;;;19.00;10.50;;;3.70;82.20;;;;;;5002662;28;20037;-76
2023/04/26 03:30:12;;;;;;;18.23;10.50;;;3.70;82.20;;;;;;4999978;28;20687;-76
2023/04/26 03:32:38;;;;;;;16.92;10.18;;;3.70;82.20;;;;;;4997183;28;20061;-76
2023/04/26 03:35:04;;;;;;;16.65;9.27;;;3.70;82.10;;;;;;5003376;28;20058;-75
2023/04/26 03:37:29;;;;;;;16.73;11.13;;;3.70;82.10;;;;;;4999801;28;20028;-75
2023/04/26 03:39:55;;;;;;;18.65;11.15;;;3.70;82.10;;;;;;5000178;28;21169;-77
2023/04/26 03:42:21;;;;;;;18.92;11.02;;;3.80;82.20;;;;;;5004962;28;20034;-76
2023/04/26 03:44:47;;;;;;;17.13;10.30;;;3.70;81.80;;;;;;5006727;28;20025;-75
2023/04/26 03:47:14;;;;;;;15.80;10.38;;;3.70;82.10;;;;;;4995283;28;20042;-76
2023/04/26 03:49:40;;;;;;;18.13;10.98;;;3.80;82.00;;;;;;5003536;28;20030;-77
2023/04/26 03:52:06;;;;;;;17.30;10.00;;;3.70;81.90;;;;;;4997238;28;20053;-77
2023/04/26 03:54:33;;;;;;;18.20;9.43;;;3.60;82.10;;;;;;5001727;28;20474;-76
2023/04/26 03:56:59;;;;;;;16.95;9.68;;;3.60;82.20;;;;;;4999926;28;20062;-76
2023/04/26 03:59:25;;;;;;;18.13;10.05;;;3.70;82.30;;;;;;4999662;28;20121;-76
2023/04/26 04:01:51;;;;;;;17.77;10.57;;;3.70;82.30;;;;;;5005880;28;20045;-76
2023/04/26 04:04:16;;;;;;;15.95;10.07;;;3.70;82.20;;;;;;4995365;28;20094;-75
2023/04/26 04:06:42;;;;;;;17.20;10.50;;;3.70;82.20;;;;;;5004326;28;20283;-74
2023/04/26 04:09:08;;;;;;;17.25;10.02;;;3.70;82.20;;;;;;5007929;28;20025;-75
2023/04/26 04:11:33;;;;;;;20.13;10.63;;;3.70;82.30;;;;;;5003367;28;20434;-76
2023/04/26 04:13:59;;;;;;;20.98;10.60;;;3.70;82.30;;;;;;4998810;28;20061;-75
2023/04/26 04:16:25;;;;;;;17.17;10.90;;;3.70;82.30;;;;;;5001106;28;20036;-75
2023/04/26 04:18:52;;;;;;;17.20;10.07;;;3.70;82.40;;;;;;5000260;28;20030;-74
2023/04/26 04:21:17;;;;;;;16.40;9.80;;;3.70;82.30;;;;;;5002202;28;20037;-74
2023/04/26 04:23:43;;;;;;;16.50;10.85;;;3.60;82.20;;;;;;5000215;28;20030;-75
2023/04/26 04:26:11;;;;;;;18.17;10.70;;;3.70;82.20;;;;;;5001379;28;20035;-74
2023/04/26 04:28:38;;;;;;;16.70;10.35;;;3.60;82.20;;;;;;4999162;28;20056;-76
2023/04/26 04:31:04;;;;;;;17.08;10.68;;;3.60;82.20;;;;;;4999978;28;20117;-75
2023/04/26 04:33:29;;;;;;;15.50;10.05;;;3.60;82.10;;;;;;5000351;28;20034;-75
2023/04/26 04:35:55;;;;;;;19.85;11.63;;;3.60;82.20;;;;;;5004796;28;20088;-75
2023/04/26 04:38:22;;;;;;;18.15;9.40;;;3.60;82.30;;;;;;4993444;28;20109;-75
2023/04/26 04:40:49;;;;;;;22.40;10.93;;;3.70;82.30;;;;;;4993908;28;20018;-74
2023/04/26 04:43:15;;;;;;;21.42;10.77;;;3.60;82.40;;;;;;4995663;28;20034;-75
2023/04/26 04:45:41;;;;;;;18.48;10.93;;;3.70;82.40;;;;;;4992767;28;20034;-75
2023/04/26 04:48:07;;;;;;;19.02;10.70;;;3.80;82.40;;;;;;4995824;28;20030;-75
2023/04/26 04:50:34;;;;;;;17.83;10.40;;;3.80;82.40;;;;;;4996682;28;20269;-75
2023/04/26 04:53:00;;;;;;;17.48;10.63;;;3.80;82.30;;;;;;4995453;28;20030;-76
2023/04/26 04:55:26;;;;;;;19.58;11.60;;;3.90;82.20;;;;;;4998899;28;20018;-76
2023/04/26 04:57:52;;;;;;;21.83;12.02;;;3.90;82.10;;;;;;5000470;28;20458;-76
2023/04/26 05:00:18;;;;;;;20.63;10.48;;;4.00;82.10;;;;;;5004329;28;20068;-75
2023/04/26 05:02:44;;;;;;;18.13;11.00;;;4.00;82.00;;;;;;4999085;28;20107;-76
2023/04/26 05:05:10;;;;;;;19.73;11.00;;;4.10;81.90;;;;;;5001753;28;20026;-76
2023/04/26 05:07:36;;;;;;;21.55;12.10;;;4.10;81.70;;;;;;4995306;28;20382;-76
2023/04/26 05:10:02;;;;;;;18.83;10.77;;;4.10;81.40;;;;;;4998091;28;20026;-76
2023/04/26 05:12:28;;;;;;;19.85;10.95;;;4.10;81.50;;;;;;5002041;28;20497;-75
2023/04/26 05:14:54;;;;;;;19.40;11.48;;;4.10;81.40;;;;;;4992965;28;20115;-76
2023/04/26 05:17:19;;;;;;;19.10;11.75;;;4.10;81.20;;;;;;4993739;28;20049;-76
2023/04/26 05:19:46;;;;;;;18.67;11.68;;;4.10;81.30;;;;;;4987478;28;20431;-77
2023/04/26 05:22:19;;;;;;;22.92;11.95;;;4.20;81.30;;;;;;4991792;28;20112;-75
2023/04/26 05:24:46;;;;;;;21.73;11.33;;;4.10;81.20;;;;;;4994913;28;20030;-75
2023/04/26 05:27:12;;;;;;;23.25;12.77;;;4.20;81.10;;;;;;5001283;28;20025;-76
2023/04/26 05:29:38;;;;;;;20.48;12.25;;;4.20;81.20;;;;;;4996057;28;20374;-75
2023/04/26 05:32:03;;;;;;;22.13;12.90;;;4.30;81.30;;;;;;4994860;28;20023;-76
2023/04/26 05:34:29;;;;;;;22.35;14.50;;;4.50;81.00;;;;;;4995534;28;20422;-77
2023/04/26 05:36:55;;;;;;;24.33;14.00;;;4.60;80.70;;;;;;5002699;28;20038;-75
2023/04/26 05:39:21;;;;;;;23.50;14.02;;;4.80;80.30;;;;;;5001286;28;20032;-76
2023/04/26 05:41:46;;;;;;;24.55;15.05;;;5.00;80.20;;;;;;4998907;28;20293;-76
2023/04/26 05:44:15;;;;;;;26.67;15.70;;;5.10;80.10;;;;;;4996301;28;20103;-80
2023/04/26 05:46:41;;;;;;;21.33;15.20;;;5.30;79.70;;;;;;4993643;28;20387;-77
2023/04/26 05:49:07;;;;;;;22.25;14.60;;;5.50;79.90;;;;;;5002607;28;20057;-78
2023/04/26 05:51:32;;;;;;;24.85;14.60;;;5.60;78.90;;;;;;4997722;28;20274;-79
2023/04/26 05:53:58;;;;;;;20.88;12.63;;;5.60;79.30;;;;;;4997089;28;20221;-78
2023/04/26 05:56:25;;;;;;;21.45;12.18;;;5.70;79.10;;;;;;4998347;28;21138;-78
2023/04/26 05:58:52;;;;;;;21.70;12.43;;;5.70;78.70;;;;;;4999559;28;20029;-79
2023/04/26 06:01:18;;;;;;;20.00;12.65;;;5.70;78.30;;;;;;4993111;28;20117;-78
2023/04/26 06:03:44;;;;;;;20.27;12.60;;;5.80;78.40;;;;;;5000445;28;20036;-80
2023/04/26 06:06:10;;;;;;;22.38;13.32;;;5.80;78.30;;;;;;5000369;28;20108;-78
2023/04/26 06:08:36;;;;;;;25.92;13.68;;;5.80;78.20;;;;;;4999332;28;20065;-79
2023/04/26 06:11:01;;;;;;;24.15;12.90;;;5.80;78.20;;;;;;4999745;28;20037;-78
2023/04/26 06:13:27;;;;;;;21.13;12.32;;;5.90;78.30;;;;;;5009793;28;20605;-77
2023/04/26 06:15:53;;;;;;;27.35;13.85;;;6.10;78.40;;;;;;5003455;28;20022;-75
2023/04/26 06:18:19;;;;;;;21.65;12.90;;;6.10;78.40;;;;;;4999975;28;20446;-75
2023/04/26 06:20:47;;;;;;;21.83;11.20;;;6.30;77.90;;;;;;4998070;28;20056;-75
2023/04/26 06:23:13;;;;;;;21.20;12.13;;;6.40;77.50;;;;;;4993607;28;20032;-74
2023/04/26 06:25:43;;;;;;;23.52;12.30;;;6.50;76.70;;;;;;5000038;28;20029;-75
2023/04/26 06:28:09;;;;;;;30.05;13.80;;;6.70;76.70;;;;;;5002213;28;20018;-75
2023/04/26 06:30:35;;;;;;;25.27;13.05;;;6.80;76.00;;;;;;4997505;28;20034;-75
2023/04/26 06:33:01;;;;;;;32.05;14.95;;;6.90;75.60;;;;;;5001030;28;20048;-74
2023/04/26 06:35:26;;;;;;;35.15;15.23;;;6.90;75.00;;;;;;5000840;28;20344;-74
2023/04/26 06:37:52;;;;;;;31.63;15.07;;;7.00;74.90;;;;;;5005025;28;20030;-75
2023/04/26 06:40:18;;;;;;;32.30;14.63;;;7.00;74.90;;;;;;5000582;28;20104;-74
2023/04/26 06:42:44;;;;;;;26.27;14.68;;;7.00;75.10;;;;;;5018402;28;20039;-74
2023/04/26 06:45:10;;;;;;;26.13;13.07;;;7.10;75.10;;;;;;5003205;28;20087;-74
2023/04/26 06:47:36;;;;;;;28.23;13.55;;;7.10;75.20;;;;;;4998575;28;20207;-75
2023/04/26 06:50:03;;;;;;;25.20;14.13;;;7.20;74.70;;;;;;4998101;28;20632;-74
2023/04/26 06:52:29;;;;;;;33.10;18.08;;;7.20;74.30;;;;;;5003846;28;20107;-74
2023/04/26 06:54:55;;;;;;;28.42;14.55;;;7.20;73.80;;;;;;5006218;28;20034;-74
2023/04/26 06:57:21;;;;;;;28.58;17.27;;;7.40;74.10;;;;;;5005047;28;20041;-74
2023/04/26 06:59:47;;;;;;;31.08;14.50;;;7.60;73.30;;;;;;5002503;28;20549;-74
2023/04/26 07:02:12;;;;;;;26.55;13.32;;;7.60;73.10;;;;;;5004001;28;20034;-74
2023/04/26 07:04:38;;;;;;;25.10;13.63;;;7.70;73.50;;;;;;5008808;28;20046;-74
2023/04/26 07:07:04;;;;;;;24.35;12.05;;;7.80;73.30;;;;;;5008369;28;20437;-74
2023/04/26 07:09:30;;;;;;;21.10;10.52;;;8.00;74.20;;;;;;5000612;28;20119;-74
2023/04/26 07:11:56;;;;;;;21.75;9.95;;;8.20;73.50;;;;;;5005797;28;20475;-74
2023/04/26 07:14:22;;;;;;;18.70;9.68;;;8.40;72.40;;;;;;5002546;28;20024;-75
2023/04/26 07:16:48;;;;;;;20.48;8.98;;;8.60;71.40;;;;;;5000205;28;20096;-73
2023/04/26 07:19:13;;;;;;;13.90;8.27;;;8.80;69.20;;;;;;5000143;28;20033;-73
2023/04/26 07:21:39;;;;;;;19.23;9.15;;;8.90;68.90;;;;;;5006984;28;20046;-73
2023/04/26 07:24:05;;;;;;;13.63;7.43;;;9.10;68.20;;;;;;5003239;28;20045;-74
2023/04/26 07:26:31;;;;;;;18.02;7.93;;;9.20;68.20;;;;;;5010291;28;20418;-74
2023/04/26 07:28:57;;;;;;;15.85;7.95;;;9.40;67.80;;;;;;4997475;28;20026;-72
2023/04/26 07:31:22;;;;;;;16.98;9.48;;;9.50;67.00;;;;;;5010740;28;20495;-74
2023/04/26 07:33:48;;;;;;;13.43;8.10;;;9.60;66.80;;;;;;5004035;28;20454;-74
2023/04/26 07:36:13;;;;;;;15.35;7.65;;;9.60;66.50;;;;;;5008960;28;20429;-75
2023/04/26 07:38:40;;;;;;;13.15;7.30;;;9.70;65.70;;;;;;5007338;28;20381;-73
2023/04/26 07:41:05;;;;;;;15.35;8.60;;;9.80;64.60;;;;;;5005207;28;20022;-73
2023/04/26 07:43:31;;;;;;;16.88;8.32;;;10.10;65.30;;;;;;5002092;28;20030;-74
2023/04/26 07:46:03;;;;;;;16.10;8.60;;;10.10;65.30;;;;;;5005232;28;20049;-74
2023/04/26 07:48:29;;;;;;;16.00;9.20;;;10.30;64.10;;;;;;5000836;28;20446;-74
2023/04/26 07:50:55;;;;;;;15.90;8.90;;;10.30;64.40;;;;;;4991480;28;20113;-74
2023/04/26 07:53:21;;;;;;;15.27;7.30;;;10.50;63.70;;;;;;5005164;28;20846;-74
2023/04/26 07:55:47;;;;;;;12.77;6.45;;;10.50;63.30;;;;;;5004425;28;20101;-73
2023/04/26 07:58:13;;;;;;;13.10;6.95;;;10.50;62.20;;;;;;5004206;28;20116;-74
2023/04/26 08:00:40;;;;;;;12.48;6.40;;;10.60;62.80;;;;;;5000260;28;20467;-73
2023/04/26 08:03:06;;;;;;;10.68;5.65;;;10.70;61.80;;;;;;5000876;28;20069;-77
2023/04/26 08:05:32;;;;;;;13.30;6.05;;;10.70;60.70;;;;;;5011011;28;20400;-75
2023/04/26 08:08:00;;;;;;;13.77;5.68;;;10.80;60.40;;;;;;5002071;28;20084;-75
2023/04/26 08:10:25;;;;;;;14.38;6.50;;;10.90;59.90;;;;;;5005227;28;20516;-75
2023/04/26 08:12:52;;;;;;;13.02;5.90;;;10.90;58.30;;;;;;4998534;28;20113;-73
2023/04/26 08:15:17;;;;;;;13.18;6.28;;;10.90;59.20;;;;;;5001502;28;20014;-74
2023/04/26 08:17:43;;;;;;;11.10;6.18;;;11.10;59.30;;;;;;5004039;28;20057;-74
2023/04/26 08:20:09;;;;;;;11.95;6.25;;;11.00;58.60;;;;;;5005471;28;20050;-73
2023/04/26 08:22:35;;;;;;;13.48;6.90;;;10.80;57.20;;;;;;5000350;28;20041;-75
2023/04/26 08:25:00;;;;;;;12.07;6.57;;;11.00;58.00;;;;;;5000450;28;20018;-74
2023/04/26 08:27:27;;;;;;;12.10;6.50;;;11.40;58.00;;;;;;5003793;28;20377;-75
2023/04/26 08:29:52;;;;;;;16.50;7.68;;;11.30;56.90;;;;;;4998793;28;20025;-74
2023/04/26 08:32:18;;;;;;;14.57;6.35;;;11.40;57.10;;;;;;5003947;28;20133;-73
2023/04/26 08:34:44;;;;;;;12.07;5.65;;;11.50;57.20;;;;;;5004430;28;20037;-76
2023/04/26 08:37:10;;;;;;;17.30;6.28;;;11.90;55.00;;;;;;5015763;28;20032;-75
2023/04/26 08:39:36;;;;;;;11.85;4.93;;;12.00;52.70;;;;;;5007614;28;20026;-76
2023/04/26 08:42:15;;;;;;;10.18;4.95;;;12.10;52.20;;;;;;5003536;28;20038;-74
2023/04/26 08:44:42;;;;;;;12.13;4.15;;;12.10;51.60;;;;;;5002644;28;20030;-75
2023/04/26 08:47:23;;;;;;;12.00;5.85;;;12.30;49.80;;;;;;5004226;28;20103;-77
2023/04/26 08:49:59;;;;;;;13.13;6.18;;;12.40;50.10;;;;;;4998946;28;20496;-77
2023/04/26 08:52:29;;;;;;;12.50;6.90;;;12.90;50.60;;;;;;5007129;28;20087;-80
2023/04/26 08:54:57;;;;;;;14.38;8.57;;;12.90;49.90;;;;;;5006244;28;20514;-79
2023/04/26 08:57:24;;;;;;;15.30;8.48;;;12.50;48.90;;;;;;5003566;28;20037;-80
2023/04/26 08:59:51;;;;;;;18.23;9.50;;;12.60;50.00;;;;;;5011767;28;20040;-79
2023/04/26 09:02:22;;;;;;;21.58;12.90;;;12.80;51.10;;;;;;5005933;28;20026;-79
2023/04/26 09:04:49;;;;;;;20.35;12.77;;;12.90;50.00;;;;;;5005470;28;20030;-83
2023/04/26 09:07:30;;;;;;;21.23;10.75;;;13.10;49.30;;;;;;5011805;28;20528;-83
2023/04/26 09:09:58;;;;;;;15.52;9.45;;;12.80;49.70;;;;;;5010161;28;20022;-80
2023/04/26 09:12:24;;;;;;;11.50;6.30;;;13.00;48.80;;;;;;5021579;28;20547;-81
2023/04/26 09:14:50;;;;;;;14.85;7.05;;;12.80;48.10;;;;;;5011331;28;20028;-79
2023/04/26 09:17:28;;;;;;;12.38;6.60;;;12.90;45.30;;;;;;5010122;28;20030;-80
2023/04/26 09:19:54;;;;;;;13.45;8.30;;;13.20;46.60;;;;;;5008118;28;20061;-80
2023/04/26 09:22:38;;;;;;;13.88;8.50;;;13.60;46.20;;;;;;5003127;28;20112;-79
2023/04/26 09:25:06;;;;;;;14.88;8.48;;;13.60;46.60;;;;;;5020260;28;20025;-80
2023/04/26 09:27:34;;;;;;;15.40;7.85;;;13.90;47.60;;;;;;5004038;28;20034;-81
2023/04/26 09:30:12;;;;;;;16.20;8.10;;;14.00;44.80;;;;;;5005942;28;20064;-82
2023/04/26 09:32:58;;;;;;;12.98;7.25;;;14.00;45.90;;;;;;5006189;28;20042;-85
2023/04/26 09:35:28;;;;;;;13.50;6.43;;;14.20;44.90;;;;;;5015298;28;20048;-83
2023/04/26 09:38:11;;;;;;;12.80;7.00;;;13.70;44.10;;;;;;5012524;28;20084;-84
2023/04/26 09:40:45;;;;;;;14.18;8.05;;;14.00;44.20;;;;;;5005966;28;20033;-82
2023/04/26 09:43:11;;;;;;;13.95;7.32;;;14.20;44.10;;;;;;5006614;28;20030;-80
2023/04/26 09:45:45;;;;;;;11.15;6.20;;;14.00;43.40;;;;;;5004641;28;20095;-79
2023/04/26 09:48:16;;;;;;;13.35;6.68;;;13.90;44.20;;;;;;5004155;28;20041;-81
2023/04/26 09:50:44;;;;;;;11.85;5.80;;;13.90;44.20;;;;;;5006116;28;20019;-82
2023/04/26 09:53:10;;;;;;;11.77;5.72;;;14.10;43.50;;;;;;5009189;28;20474;-80
2023/04/26 09:55:36;;;;;;;14.73;6.90;;;14.10;43.50;;;;;;5009885;28;20045;-79
2023/04/26 09:58:09;;;;;;;12.00;6.15;;;14.20;43.30;;;;;;4997741;28;20041;-82
2023/04/26 10:00:38;;;;;;;14.18;6.80;;;14.80;43.80;;;;;;5009323;28;20087;-77
2023/04/26 10:03:06;;;;;;;13.75;6.82;;;15.20;43.00;;;;;;5004231;28;20129;-76
2023/04/26 10:05:32;;;;;;;10.50;6.03;;;15.40;41.10;;;;;;5003970;28;20030;-78
2023/04/26 10:07:58;;;;;;;12.73;6.80;;;15.20;44.40;;;;;;5010835;28;20748;-79
2023/04/26 10:10:24;;;;;;;12.40;6.70;;;15.30;42.30;;;;;;5017471;28;20449;-77
2023/04/26 10:12:49;;;;;;;11.13;5.93;;;15.40;42.20;;;;;;5004966;28;20065;-76
2023/04/26 10:15:16;;;;;;;11.68;6.10;;;15.10;42.10;;;;;;5011332;28;20018;-78
2023/04/26 10:17:42;;;;;;;10.60;5.53;;;15.30;40.20;;;;;;5014673;28;20033;-75
2023/04/26 10:20:12;;;;;;;13.38;6.53;;;15.00;41.00;;;;;;5015069;28;20039;-80
2023/04/26 10:22:52;;;;;;;13.85;6.88;;;14.70;40.80;;;;;;5011951;28;20045;-78
2023/04/26 10:25:18;;;;;;;14.35;7.22;;;13.90;42.20;;;;;;4996171;28;20010;-78
2023/04/26 10:27:44;;;;;;;12.60;7.28;;;13.20;43.60;;;;;;5007589;28;20367;-78
2023/04/26 10:30:12;;;;;;;11.32;6.55;;;12.70;45.30;;;;;;5005310;28;20044;-76
2023/04/26 10:32:56;;;;;;;13.98;6.70;;;12.60;46.40;;;;;;5011419;28;20033;-78
2023/04/26 10:35:24;;;;;;;16.45;7.18;;;12.70;46.40;;;;;;5011909;28;20022;-78
2023/04/26 10:38:02;;;;;;;12.27;6.85;;;12.90;43.50;;;;;;4998625;28;20076;-78
2023/04/26 10:40:32;;;;;;;11.40;6.65;;;13.40;45.30;;;;;;4997146;28;20143;-77
2023/04/26 10:43:19;;;;;;;12.48;7.25;;;14.00;43.70;;;;;;4993816;28;20473;-78
2023/04/26 10:45:45;;;;;;;15.50;7.50;;;14.00;44.00;;;;;;4994805;28;20031;-76
2023/04/26 10:48:20;;;;;;;11.20;7.15;;;13.30;47.30;;;;;;4997152;28;20045;-77
2023/04/26 10:51:00;;;;;;;12.90;7.28;;;12.90;44.50;;;;;;4994908;28;20270;-76
2023/04/26 10:53:27;;;;;;;12.43;7.03;;;13.00;46.50;;;;;;4994968;28;20068;-76
2023/04/26 10:55:53;;;;;;;12.55;6.57;;;13.40;44.70;;;;;;4993320;28;20014;-75
2023/04/26 10:58:30;;;;;;;13.00;7.60;;;14.10;44.30;;;;;;4998107;28;20030;-75
2023/04/26 11:01:19;;;;;;;11.80;7.20;;;13.90;41.80;;;;;;4993052;28;20053;-76
2023/04/26 11:03:57;;;;;;;12.32;7.70;;;13.30;43.70;;;;;;4996049;28;20049;-76
2023/04/26 11:06:24;;;;;;;13.15;7.22;;;13.60;44.80;;;;;;4998628;28;20113;-77
2023/04/26 11:08:50;;;;;;;11.90;6.65;;;14.00;42.50;;;;;;4993458;28;20058;-80
2023/04/26 11:11:18;;;;;;;13.13;7.13;;;14.60;43.10;;;;;;4998148;28;20068;-76
2023/04/26 11:13:45;;;;;;;13.55;7.30;;;14.90;42.80;;;;;;4998093;28;20421;-77
2023/04/26 11:16:13;;;;;;;17.73;8.00;;;15.00;41.10;;;;;;4994854;28;20041;-76
2023/04/26 11:18:44;;;;;;;11.25;7.03;;;15.50;41.30;;;;;;5006167;28;20281;-77
2023/04/26 11:21:20;;;;;;;12.45;6.88;;;15.90;40.80;;;;;;4996708;28;20092;-76
2023/04/26 11:23:53;;;;;;;11.05;6.57;;;16.30;40.20;;;;;;4996466;28;20059;-76
2023/04/26 11:26:18;;;;;;;14.45;6.45;;;16.20;40.30;;;;;;4995694;28;20038;-75
2023/04/26 11:28:45;;;;;;;11.48;6.82;;;16.00;39.40;;;;;;4993758;28;20034;-77
2023/04/26 11:31:12;;;;;;;11.90;7.35;;;15.60;37.40;;;;;;4998372;28;20568;-76
2023/04/26 11:33:40;;;;;;;14.60;7.07;;;15.20;38.50;;;;;;4995296;28;20037;-77
2023/04/26 11:36:06;;;;;;;12.23;6.18;;;15.10;38.50;;;;;;4999717;28;20125;-76
2023/04/26 11:38:32;;;;;;;10.88;6.75;;;14.70;38.70;;;;;;5007443;28;20553;-77
2023/04/26 11:41:00;;;;;;;12.90;6.63;;;15.10;41.10;;;;;;5010862;28;20041;-76
2023/04/26 11:43:44;;;;;;;10.50;5.75;;;15.30;39.60;;;;;;5003232;28;20026;-77
2023/04/26 11:46:10;;;;;;;11.73;5.93;;;15.20;37.80;;;;;;5005737;28;20486;-77
2023/04/26 11:48:37;;;;;;;11.50;6.82;;;15.30;38.80;;;;;;5008958;28;20104;-78
2023/04/26 11:51:05;;;;;;;12.15;6.72;;;14.90;40.00;;;;;;5007817;28;20033;-74
2023/04/26 11:53:50;;;;;;;13.00;6.78;;;14.40;40.50;;;;;;5008143;28;20037;-76
2023/04/26 11:56:21;;;;;;;9.82;6.15;;;14.60;40.30;;;;;;5009803;28;20049;-75
2023/04/26 11:58:51;;;;;;;14.40;6.68;;;14.40;40.20;;;;;;5008728;28;20030;-75
2023/04/26 12:01:28;;;;;;;12.52;6.63;;;14.10;40.90;;;;;;5010135;28;20022;-75
2023/04/26 12:03:55;;;;;;;13.48;7.50;;;14.50;41.70;;;;;;5005885;28;20541;-76
2023/04/26 12:06:40;;;;;;;16.05;8.32;;;14.40;41.60;;;;;;5019110;28;20029;-75
2023/04/26 12:09:08;;;;;;;14.52;7.38;;;14.00;42.60;;;;;;5010361;28;20025;-75
2023/04/26 12:11:34;;;;;;;11.80;7.00;;;14.00;43.30;;;;;;5009245;28;20532;-76
2023/04/26 12:14:00;;;;;;;11.07;5.40;;;14.60;43.40;;;;;;5011852;28;20033;-76
2023/04/26 12:16:26;;;;;;;12.00;6.13;;;14.90;40.60;;;;;;5006372;28;21162;-76
2023/04/26 12:18:53;;;;;;;12.48;6.18;;;14.90;40.30;;;;;;5005966;28;20029;-76
2023/04/26 12:21:19;;;;;;;10.75;5.80;;;14.90;38.10;;;;;;5010891;28;20025;-76
2023/04/26 12:23:48;;;;;;;11.13;5.53;;;15.00;37.60;;;;;;5003048;28;20466;-77
2023/04/26 12:26:14;;;;;;;10.63;5.55;;;15.20;38.90;;;;;;5006992;28;20030;-73
2023/04/26 12:28:40;;;;;;;9.65;5.15;;;15.30;38.20;;;;;;5002287;28;20318;-75
2023/04/26 12:31:06;;;;;;;12.02;6.90;;;15.20;39.40;;;;;;5010450;28;20029;-74
2023/04/26 12:33:32;;;;;;;11.63;5.97;;;15.50;38.70;;;;;;5003537;28;20017;-74
2023/04/26 12:36:11;;;;;;;11.63;6.50;;;15.40;38.90;;;;;;5007120;28;21929;-74
2023/04/26 12:38:38;;;;;;;12.27;6.70;;;15.50;37.80;;;;;;5003554;28;20061;-74